<?xml version="1.0" encoding="UTF-8" standalone="no" ?><gpx xmlns="http://www.topografix.com/GPX/1/1" xmlns:gpxx="http://www.garmin.com/xmlschemas/GpxExtensions/v3" xmlns:gpxtrkx="http://www.garmin.com/xmlschemas/TrackStatsExtension/v1" xmlns:wptx1="http://www.garmin.com/xmlschemas/WaypointExtension/v1" xmlns:gpxtpx="http://www.garmin.com/xmlschemas/TrackPointExtension/v1" creator="Oregon 700" version="1.1" xmlns:xsi="http://www.w3.org/2001/XMLSchema-instance" xsi:schemaLocation="http://www.topografix.com/GPX/1/1 http://www.topografix.com/GPX/1/1/gpx.xsd http://www.garmin.com/xmlschemas/GpxExtensions/v3 http://www8.garmin.com/xmlschemas/GpxExtensionsv3.xsd http://www.garmin.com/xmlschemas/TrackStatsExtension/v1 http://www8.garmin.com/xmlschemas/TrackStatsExtension.xsd http://www.garmin.com/xmlschemas/WaypointExtension/v1 http://www8.garmin.com/xmlschemas/WaypointExtensionv1.xsd http://www.garmin.com/xmlschemas/TrackPointExtension/v1 http://www.garmin.com/xmlschemas/TrackPointExtensionv1.xsd"><metadata><link href="http://www.garmin.com"><text>Garmin International</text></link><time>2023-11-01T16:47:13Z</time></metadata><trk><name>Current Track: 01 NOV 2023 10:10</name><extensions><gpxx:TrackExtension><gpxx:DisplayColor>Cyan</gpxx:DisplayColor></gpxx:TrackExtension><gpxtrkx:TrackStatsExtension><gpxtrkx:Distance>3302.000</gpxtrkx:Distance><gpxtrkx:TimerTime>6893</gpxtrkx:TimerTime><gpxtrkx:TotalElapsedTime>23798</gpxtrkx:TotalElapsedTime><gpxtrkx:MovingTime>4744</gpxtrkx:MovingTime><gpxtrkx:StoppedTime>2149</gpxtrkx:StoppedTime><gpxtrkx:MovingSpeed>0.696</gpxtrkx:MovingSpeed><gpxtrkx:MaxSpeed>1.643</gpxtrkx:MaxSpeed><gpxtrkx:MaxElevation>183.316</gpxtrkx:MaxElevation><gpxtrkx:MinElevation>173.136</gpxtrkx:MinElevation><gpxtrkx:Ascent>24.000</gpxtrkx:Ascent><gpxtrkx:Descent>25.207</gpxtrkx:Descent><gpxtrkx:AvgAscentRate>0.016</gpxtrkx:AvgAscentRate><gpxtrkx:MaxAscentRate>0.037</gpxtrkx:MaxAscentRate><gpxtrkx:AvgDescentRate>0.014</gpxtrkx:AvgDescentRate><gpxtrkx:MaxDescentRate>-0.028</gpxtrkx:MaxDescentRate><gpxtrkx:Calories>154</gpxtrkx:Calories></gpxtrkx:TrackStatsExtension></extensions><trkseg><trkpt lat="51.9970333111" lon="-2.0145822968"><ele>179.48</ele><time>2023-11-01T10:10:36Z</time></trkpt><trkpt lat="51.9970413577" lon="-2.0145869069"><ele>180.18</ele><time>2023-11-01T10:11:01Z</time></trkpt><trkpt lat="51.9970592111" lon="-2.0145613421"><ele>179.87</ele><time>2023-11-01T10:11:18Z</time></trkpt><trkpt lat="51.9971217401" lon="-2.0145078655"><ele>179.95</ele><time>2023-11-01T10:11:25Z</time></trkpt><trkpt lat="51.9972774759" lon="-2.0143766049"><ele>179.94</ele><time>2023-11-01T10:11:40Z</time></trkpt><trkpt lat="51.9973714370" lon="-2.0142874215"><ele>179.31</ele><time>2023-11-01T10:11:54Z</time></trkpt><trkpt lat="51.9974211417" lon="-2.0142970607"><ele>179.24</ele><time>2023-11-01T10:12:10Z</time></trkpt><trkpt lat="51.9974411745" lon="-2.0143186860"><ele>179.27</ele><time>2023-11-01T10:12:12Z</time></trkpt><trkpt lat="51.9974809885" lon="-2.0143622719"><ele>179.41</ele><time>2023-11-01T10:12:16Z</time></trkpt><trkpt lat="51.9975162763" lon="-2.0144164190"><ele>179.43</ele><time>2023-11-01T10:12:21Z</time></trkpt><trkpt lat="51.9976268336" lon="-2.0145576540"><ele>178.62</ele><time>2023-11-01T10:12:37Z</time></trkpt><trkpt lat="51.9976888597" lon="-2.0146848075"><ele>178.37</ele><time>2023-11-01T10:12:54Z</time></trkpt><trkpt lat="51.9976628758" lon="-2.0146857295"><ele>173.53</ele><time>2023-11-01T10:13:08Z</time></trkpt><trkpt lat="51.9976645522" lon="-2.0146972965"><ele>170.07</ele><time>2023-11-01T10:13:11Z</time></trkpt><trkpt lat="51.9976673182" lon="-2.0147039182"><ele>174.35</ele><time>2023-11-01T10:13:13Z</time></trkpt><trkpt lat="51.9976652227" lon="-2.0147062652"><ele>178.25</ele><time>2023-11-01T10:13:14Z</time></trkpt><trkpt lat="51.9976637140" lon="-2.0147185028"><ele>181.85</ele><time>2023-11-01T10:13:16Z</time></trkpt><trkpt lat="51.9976705872" lon="-2.0147505216"><ele>178.67</ele><time>2023-11-01T10:13:26Z</time></trkpt><trkpt lat="51.9977411628" lon="-2.0148346759"><ele>177.98</ele><time>2023-11-01T10:13:43Z</time></trkpt><trkpt lat="51.9977822341" lon="-2.0149136335"><ele>177.73</ele><time>2023-11-01T10:13:58Z</time></trkpt><trkpt lat="51.9978527259" lon="-2.0149992965"><ele>177.72</ele><time>2023-11-01T10:14:11Z</time></trkpt><trkpt lat="51.9979272410" lon="-2.0150179043"><ele>177.72</ele><time>2023-11-01T10:14:24Z</time></trkpt><trkpt lat="51.9979900215" lon="-2.0149568003"><ele>177.72</ele><time>2023-11-01T10:14:38Z</time></trkpt><trkpt lat="51.9981032610" lon="-2.0149167348"><ele>177.72</ele><time>2023-11-01T10:14:55Z</time></trkpt><trkpt lat="51.9981134869" lon="-2.0148791000"><ele>177.72</ele><time>2023-11-01T10:15:19Z</time></trkpt><trkpt lat="51.9981638622" lon="-2.0148547087"><ele>177.72</ele><time>2023-11-01T10:15:43Z</time></trkpt><trkpt lat="51.9982614275" lon="-2.0147863962"><ele>177.72</ele><time>2023-11-01T10:16:04Z</time></trkpt><trkpt lat="51.9983197656" lon="-2.0147886593"><ele>177.72</ele><time>2023-11-01T10:16:12Z</time></trkpt><trkpt lat="51.9983755890" lon="-2.0148156490"><ele>177.74</ele><time>2023-11-01T10:16:27Z</time></trkpt><trkpt lat="51.9984693825" lon="-2.0148326643"><ele>177.47</ele><time>2023-11-01T10:16:50Z</time></trkpt><trkpt lat="51.9985818677" lon="-2.0148451533"><ele>177.38</ele><time>2023-11-01T10:17:05Z</time></trkpt><trkpt lat="51.9987049140" lon="-2.0148798544"><ele>177.91</ele><time>2023-11-01T10:17:20Z</time></trkpt><trkpt lat="51.9987846259" lon="-2.0148910023"><ele>177.80</ele><time>2023-11-01T10:17:31Z</time></trkpt><trkpt lat="51.9988943450" lon="-2.0149027370"><ele>177.58</ele><time>2023-11-01T10:17:46Z</time></trkpt><trkpt lat="51.9990138710" lon="-2.0149197523"><ele>177.63</ele><time>2023-11-01T10:18:00Z</time></trkpt><trkpt lat="51.9990603067" lon="-2.0149443951"><ele>177.62</ele><time>2023-11-01T10:18:06Z</time></trkpt><trkpt lat="51.9991418626" lon="-2.0149780065"><ele>177.88</ele><time>2023-11-01T10:18:15Z</time></trkpt><trkpt lat="51.9992247596" lon="-2.0150156412"><ele>177.77</ele><time>2023-11-01T10:18:32Z</time></trkpt><trkpt lat="51.9992295373" lon="-2.0150068402"><ele>177.77</ele><time>2023-11-01T10:18:53Z</time></trkpt><trkpt lat="51.9992814213" lon="-2.0151085127"><ele>177.77</ele><time>2023-11-01T10:19:13Z</time></trkpt><trkpt lat="51.9993163738" lon="-2.0152531005"><ele>177.77</ele><time>2023-11-01T10:19:27Z</time></trkpt><trkpt lat="51.9993846025" lon="-2.0153769013"><ele>177.77</ele><time>2023-11-01T10:19:45Z</time></trkpt><trkpt lat="51.9994464610" lon="-2.0155554358"><ele>177.91</ele><time>2023-11-01T10:20:01Z</time></trkpt><trkpt lat="51.9994892925" lon="-2.0156737883"><ele>178.18</ele><time>2023-11-01T10:20:18Z</time></trkpt><trkpt lat="51.9994828384" lon="-2.0157873631"><ele>178.20</ele><time>2023-11-01T10:20:40Z</time></trkpt><trkpt lat="51.9994765520" lon="-2.0158166997"><ele>178.40</ele><time>2023-11-01T10:20:43Z</time></trkpt><trkpt lat="51.9994375762" lon="-2.0158886164"><ele>178.08</ele><time>2023-11-01T10:20:49Z</time></trkpt><trkpt lat="51.9993849378" lon="-2.0160344616"><ele>178.02</ele><time>2023-11-01T10:21:02Z</time></trkpt><trkpt lat="51.9993804954" lon="-2.0160446875"><ele>178.01</ele><time>2023-11-01T10:21:03Z</time></trkpt><trkpt lat="51.9993280247" lon="-2.0161816478"><ele>178.14</ele><time>2023-11-01T10:21:18Z</time></trkpt><trkpt lat="51.9993016217" lon="-2.0162813086"><ele>178.45</ele><time>2023-11-01T10:21:31Z</time></trkpt><trkpt lat="51.9992469717" lon="-2.0164836477"><ele>178.11</ele><time>2023-11-01T10:21:45Z</time></trkpt><trkpt lat="51.9991789106" lon="-2.0166739170"><ele>178.64</ele><time>2023-11-01T10:22:01Z</time></trkpt><trkpt lat="51.9990955945" lon="-2.0168929361"><ele>177.92</ele><time>2023-11-01T10:22:18Z</time></trkpt><trkpt lat="51.9990718737" lon="-2.0170402061"><ele>178.14</ele><time>2023-11-01T10:22:34Z</time></trkpt><trkpt lat="51.9990960136" lon="-2.0170694590"><ele>177.61</ele><time>2023-11-01T10:22:57Z</time></trkpt><trkpt lat="51.9991787430" lon="-2.0171497576"><ele>177.57</ele><time>2023-11-01T10:23:14Z</time></trkpt><trkpt lat="51.9992828462" lon="-2.0172162261"><ele>177.17</ele><time>2023-11-01T10:23:35Z</time></trkpt><trkpt lat="51.9993310422" lon="-2.0172647573"><ele>177.74</ele><time>2023-11-01T10:23:57Z</time></trkpt><trkpt lat="51.9993597921" lon="-2.0172691997"><ele>177.52</ele><time>2023-11-01T10:24:25Z</time></trkpt><trkpt lat="51.9993405137" lon="-2.0172587223"><ele>177.72</ele><time>2023-11-01T10:25:08Z</time></trkpt><trkpt lat="51.9994694274" lon="-2.0172269549"><ele>177.98</ele><time>2023-11-01T10:27:21Z</time></trkpt><trkpt lat="51.9994400069" lon="-2.0173010509"><ele>177.75</ele><time>2023-11-01T10:31:18Z</time></trkpt><trkpt lat="51.9992215745" lon="-2.0172205009"><ele>177.70</ele><time>2023-11-01T10:31:37Z</time></trkpt><trkpt lat="51.9991364982" lon="-2.0171217620"><ele>178.01</ele><time>2023-11-01T10:31:54Z</time></trkpt><trkpt lat="51.9990899786" lon="-2.0170366857"><ele>177.83</ele><time>2023-11-01T10:32:12Z</time></trkpt><trkpt lat="51.9991062395" lon="-2.0168957021"><ele>178.17</ele><time>2023-11-01T10:32:30Z</time></trkpt><trkpt lat="51.9991611410" lon="-2.0167008229"><ele>178.35</ele><time>2023-11-01T10:32:47Z</time></trkpt><trkpt lat="51.9992273580" lon="-2.0165198576"><ele>178.58</ele><time>2023-11-01T10:33:03Z</time></trkpt><trkpt lat="51.9992893003" lon="-2.0163264032"><ele>178.45</ele><time>2023-11-01T10:33:20Z</time></trkpt><trkpt lat="51.9993399270" lon="-2.0161397383"><ele>178.16</ele><time>2023-11-01T10:33:35Z</time></trkpt><trkpt lat="51.9994110893" lon="-2.0159245748"><ele>178.40</ele><time>2023-11-01T10:33:52Z</time></trkpt><trkpt lat="51.9994734507" lon="-2.0158878621"><ele>178.91</ele><time>2023-11-01T10:34:07Z</time></trkpt><trkpt lat="51.9994909689" lon="-2.0159602817"><ele>178.91</ele><time>2023-11-01T10:34:27Z</time></trkpt><trkpt lat="51.9995352253" lon="-2.0161298476"><ele>178.91</ele><time>2023-11-01T10:34:41Z</time></trkpt><trkpt lat="51.9995417632" lon="-2.0162928756"><ele>178.51</ele><time>2023-11-01T10:34:55Z</time></trkpt><trkpt lat="51.9995532464" lon="-2.0164474379"><ele>178.27</ele><time>2023-11-01T10:35:09Z</time></trkpt><trkpt lat="51.9995619636" lon="-2.0165895950"><ele>178.05</ele><time>2023-11-01T10:35:23Z</time></trkpt><trkpt lat="51.9995670766" lon="-2.0167641900"><ele>177.34</ele><time>2023-11-01T10:35:38Z</time></trkpt><trkpt lat="51.9995676633" lon="-2.0168800279"><ele>178.08</ele><time>2023-11-01T10:35:52Z</time></trkpt><trkpt lat="51.9995670766" lon="-2.0169757493"><ele>178.20</ele><time>2023-11-01T10:36:04Z</time></trkpt><trkpt lat="51.9995746203" lon="-2.0170687884"><ele>177.70</ele><time>2023-11-01T10:36:19Z</time></trkpt><trkpt lat="51.9995732792" lon="-2.0171249472"><ele>177.70</ele><time>2023-11-01T10:36:41Z</time></trkpt><trkpt lat="51.9995772187" lon="-2.0172676910"><ele>177.22</ele><time>2023-11-01T10:36:58Z</time></trkpt><trkpt lat="51.9995700940" lon="-2.0173564553"><ele>177.44</ele><time>2023-11-01T10:37:13Z</time></trkpt><trkpt lat="51.9995693397" lon="-2.0175020490"><ele>177.03</ele><time>2023-11-01T10:37:26Z</time></trkpt><trkpt lat="51.9995489717" lon="-2.0175630692"><ele>176.91</ele><time>2023-11-01T10:37:46Z</time></trkpt><trkpt lat="51.9995241612" lon="-2.0175876282"><ele>176.97</ele><time>2023-11-01T10:38:10Z</time></trkpt><trkpt lat="51.9995281007" lon="-2.0175928250"><ele>176.97</ele><time>2023-11-01T10:38:35Z</time></trkpt><trkpt lat="51.9995092414" lon="-2.0175768156"><ele>176.97</ele><time>2023-11-01T10:39:02Z</time></trkpt><trkpt lat="51.9995229878" lon="-2.0175712835"><ele>176.97</ele><time>2023-11-01T10:39:34Z</time></trkpt><trkpt lat="51.9995210599" lon="-2.0175642427"><ele>176.97</ele><time>2023-11-01T10:39:59Z</time></trkpt><trkpt lat="51.9995374884" lon="-2.0175640751"><ele>176.97</ele><time>2023-11-01T10:40:39Z</time></trkpt><trkpt lat="51.9995642267" lon="-2.0175909810"><ele>176.97</ele><time>2023-11-01T10:40:55Z</time></trkpt><trkpt lat="51.9995835051" lon="-2.0176169649"><ele>176.97</ele><time>2023-11-01T10:41:20Z</time></trkpt><trkpt lat="51.9995898753" lon="-2.0177835133"><ele>176.97</ele><time>2023-11-01T10:41:35Z</time></trkpt><trkpt lat="51.9995322078" lon="-2.0178311225"><ele>177.54</ele><time>2023-11-01T10:41:48Z</time></trkpt><trkpt lat="51.9995242450" lon="-2.0179674961"><ele>177.68</ele><time>2023-11-01T10:42:03Z</time></trkpt><trkpt lat="51.9994947407" lon="-2.0180395804"><ele>177.62</ele><time>2023-11-01T10:42:22Z</time></trkpt><trkpt lat="51.9995088223" lon="-2.0181523170"><ele>177.19</ele><time>2023-11-01T10:42:42Z</time></trkpt><trkpt lat="51.9995073136" lon="-2.0183058735"><ele>177.33</ele><time>2023-11-01T10:43:00Z</time></trkpt><trkpt lat="51.9994624704" lon="-2.0185211208"><ele>177.24</ele><time>2023-11-01T10:43:22Z</time></trkpt><trkpt lat="51.9994587824" lon="-2.0186383836"><ele>177.24</ele><time>2023-11-01T10:43:42Z</time></trkpt><trkpt lat="51.9994554296" lon="-2.0187600888"><ele>177.24</ele><time>2023-11-01T10:44:00Z</time></trkpt><trkpt lat="51.9994468801" lon="-2.0188802015"><ele>177.24</ele><time>2023-11-01T10:44:19Z</time></trkpt><trkpt lat="51.9994406775" lon="-2.0190650225"><ele>177.24</ele><time>2023-11-01T10:44:37Z</time></trkpt><trkpt lat="51.9994553458" lon="-2.0192034077"><ele>177.24</ele><time>2023-11-01T10:44:56Z</time></trkpt><trkpt lat="51.9994601235" lon="-2.0193598978"><ele>177.24</ele><time>2023-11-01T10:45:18Z</time></trkpt><trkpt lat="51.9994404260" lon="-2.0194429625"><ele>177.24</ele><time>2023-11-01T10:45:44Z</time></trkpt><trkpt lat="51.9994207285" lon="-2.0195422880"><ele>177.24</ele><time>2023-11-01T10:46:05Z</time></trkpt><trkpt lat="51.9994140230" lon="-2.0196814276"><ele>177.24</ele><time>2023-11-01T10:46:27Z</time></trkpt><trkpt lat="51.9994290266" lon="-2.0197341498"><ele>177.24</ele><time>2023-11-01T10:46:50Z</time></trkpt><trkpt lat="51.9994752947" lon="-2.0198335592"><ele>177.24</ele><time>2023-11-01T10:47:08Z</time></trkpt><trkpt lat="51.9995365664" lon="-2.0198987704"><ele>177.24</ele><time>2023-11-01T10:47:33Z</time></trkpt><trkpt lat="51.9996513147" lon="-2.0200152788"><ele>177.24</ele><time>2023-11-01T10:47:56Z</time></trkpt><trkpt lat="51.9997549150" lon="-2.0201187115"><ele>177.24</ele><time>2023-11-01T10:48:17Z</time></trkpt><trkpt lat="51.9998542406" lon="-2.0202391595"><ele>177.24</ele><time>2023-11-01T10:48:38Z</time></trkpt><trkpt lat="51.9999635406" lon="-2.0203060471"><ele>177.24</ele><time>2023-11-01T10:48:59Z</time></trkpt><trkpt lat="51.9999873452" lon="-2.0202994253"><ele>177.24</ele><time>2023-11-01T10:49:22Z</time></trkpt><trkpt lat="52.0000512153" lon="-2.0202669874"><ele>177.24</ele><time>2023-11-01T10:49:40Z</time></trkpt><trkpt lat="52.0001384709" lon="-2.0202561747"><ele>177.24</ele><time>2023-11-01T10:49:58Z</time></trkpt><trkpt lat="52.0002577454" lon="-2.0203083940"><ele>177.24</ele><time>2023-11-01T10:50:16Z</time></trkpt><trkpt lat="52.0003579091" lon="-2.0203545783"><ele>177.24</ele><time>2023-11-01T10:50:32Z</time></trkpt><trkpt lat="52.0005069394" lon="-2.0204040315"><ele>177.24</ele><time>2023-11-01T10:50:51Z</time></trkpt><trkpt lat="52.0005724858" lon="-2.0204057079"><ele>177.24</ele><time>2023-11-01T10:51:09Z</time></trkpt><trkpt lat="52.0006698836" lon="-2.0204445161"><ele>177.24</ele><time>2023-11-01T10:51:25Z</time></trkpt><trkpt lat="52.0007474162" lon="-2.0204834919"><ele>177.24</ele><time>2023-11-01T10:51:40Z</time></trkpt><trkpt lat="52.0008601528" lon="-2.0205193665"><ele>177.24</ele><time>2023-11-01T10:51:57Z</time></trkpt><trkpt lat="52.0008935966" lon="-2.0205287542"><ele>172.97</ele><time>2023-11-01T10:52:16Z</time></trkpt><trkpt lat="52.0008917525" lon="-2.0205294248"><ele>168.07</ele><time>2023-11-01T10:52:18Z</time></trkpt><trkpt lat="52.0008904953" lon="-2.0205303468"><ele>164.96</ele><time>2023-11-01T10:52:19Z</time></trkpt><trkpt lat="52.0008931775" lon="-2.0205334481"><ele>162.56</ele><time>2023-11-01T10:52:21Z</time></trkpt><trkpt lat="52.0009072591" lon="-2.0205379743"><ele>165.58</ele><time>2023-11-01T10:52:24Z</time></trkpt><trkpt lat="52.0009077620" lon="-2.0205377229"><ele>169.59</ele><time>2023-11-01T10:52:25Z</time></trkpt><trkpt lat="52.0009080973" lon="-2.0205380581"><ele>175.50</ele><time>2023-11-01T10:52:26Z</time></trkpt><trkpt lat="52.0009075943" lon="-2.0205378905"><ele>181.63</ele><time>2023-11-01T10:52:27Z</time></trkpt><trkpt lat="52.0009063371" lon="-2.0205375552"><ele>181.63</ele><time>2023-11-01T10:52:28Z</time></trkpt><trkpt lat="52.0009011403" lon="-2.0205436740"><ele>178.58</ele><time>2023-11-01T10:52:35Z</time></trkpt><trkpt lat="52.0008983742" lon="-2.0205383096"><ele>175.13</ele><time>2023-11-01T10:52:42Z</time></trkpt><trkpt lat="52.0008983742" lon="-2.0205387287"><ele>171.78</ele><time>2023-11-01T10:52:45Z</time></trkpt><trkpt lat="52.0009080973" lon="-2.0205470268"><ele>176.36</ele><time>2023-11-01T10:52:51Z</time></trkpt><trkpt lat="52.0009161439" lon="-2.0205541514"><ele>179.40</ele><time>2023-11-01T10:52:53Z</time></trkpt><trkpt lat="52.0009513479" lon="-2.0206020959"><ele>176.34</ele><time>2023-11-01T10:53:07Z</time></trkpt><trkpt lat="52.0009504259" lon="-2.0206020121"><ele>172.60</ele><time>2023-11-01T10:53:09Z</time></trkpt><trkpt lat="52.0009500068" lon="-2.0206023473"><ele>169.22</ele><time>2023-11-01T10:53:10Z</time></trkpt><trkpt lat="52.0009495039" lon="-2.0206028502"><ele>166.01</ele><time>2023-11-01T10:53:12Z</time></trkpt><trkpt lat="52.0009496715" lon="-2.0206047781"><ele>169.30</ele><time>2023-11-01T10:53:17Z</time></trkpt><trkpt lat="52.0009495877" lon="-2.0206050295"><ele>173.57</ele><time>2023-11-01T10:53:18Z</time></trkpt><trkpt lat="52.0009493362" lon="-2.0206053648"><ele>173.57</ele><time>2023-11-01T10:53:19Z</time></trkpt><trkpt lat="52.0009946823" lon="-2.0205670595"><ele>173.57</ele><time>2023-11-01T10:53:40Z</time></trkpt><trkpt lat="52.0010852907" lon="-2.0206020959"><ele>173.57</ele><time>2023-11-01T10:53:55Z</time></trkpt><trkpt lat="52.0011939202" lon="-2.0206385572"><ele>173.57</ele><time>2023-11-01T10:54:10Z</time></trkpt><trkpt lat="52.0012491569" lon="-2.0206474420"><ele>176.32</ele><time>2023-11-01T10:54:19Z</time></trkpt><trkpt lat="52.0012970176" lon="-2.0206366293"><ele>176.55</ele><time>2023-11-01T10:54:38Z</time></trkpt><trkpt lat="52.0012983587" lon="-2.0206321869"><ele>173.28</ele><time>2023-11-01T10:54:44Z</time></trkpt><trkpt lat="52.0012992807" lon="-2.0206382219"><ele>176.33</ele><time>2023-11-01T10:54:49Z</time></trkpt><trkpt lat="52.0012998674" lon="-2.0206370484"><ele>178.52</ele><time>2023-11-01T10:54:52Z</time></trkpt><trkpt lat="52.0012993645" lon="-2.0206397306"><ele>173.95</ele><time>2023-11-01T10:54:54Z</time></trkpt><trkpt lat="52.0012984425" lon="-2.0206435025"><ele>170.56</ele><time>2023-11-01T10:54:57Z</time></trkpt><trkpt lat="52.0012976043" lon="-2.0206495374"><ele>173.78</ele><time>2023-11-01T10:55:03Z</time></trkpt><trkpt lat="52.0012978557" lon="-2.0206507109"><ele>175.57</ele><time>2023-11-01T10:55:06Z</time></trkpt><trkpt lat="52.0012949221" lon="-2.0206557401"><ele>180.71</ele><time>2023-11-01T10:55:12Z</time></trkpt><trkpt lat="52.0012929104" lon="-2.0206583384"><ele>177.58</ele><time>2023-11-01T10:55:25Z</time></trkpt><trkpt lat="52.0012915693" lon="-2.0206507947"><ele>171.25</ele><time>2023-11-01T10:55:28Z</time></trkpt><trkpt lat="52.0012926590" lon="-2.0206496213"><ele>163.56</ele><time>2023-11-01T10:55:29Z</time></trkpt><trkpt lat="52.0012950059" lon="-2.0206508785"><ele>163.56</ele><time>2023-11-01T10:55:30Z</time></trkpt><trkpt lat="52.0012977719" lon="-2.0206529740"><ele>159.80</ele><time>2023-11-01T10:55:31Z</time></trkpt><trkpt lat="52.0013085846" lon="-2.0206580032"><ele>164.71</ele><time>2023-11-01T10:55:35Z</time></trkpt><trkpt lat="52.0013085846" lon="-2.0206580032"><ele>169.77</ele><time>2023-11-01T10:55:36Z</time></trkpt><trkpt lat="52.0013086684" lon="-2.0206580032"><ele>177.74</ele><time>2023-11-01T10:55:37Z</time></trkpt><trkpt lat="52.0013080817" lon="-2.0206578355"><ele>184.85</ele><time>2023-11-01T10:55:38Z</time></trkpt><trkpt lat="52.0013088360" lon="-2.0206604339"><ele>188.65</ele><time>2023-11-01T10:55:39Z</time></trkpt><trkpt lat="52.0013412740" lon="-2.0206617750"><ele>184.95</ele><time>2023-11-01T10:55:45Z</time></trkpt><trkpt lat="52.0013584569" lon="-2.0206712466"><ele>181.79</ele><time>2023-11-01T10:55:47Z</time></trkpt><trkpt lat="52.0013884641" lon="-2.0206997450"><ele>178.56</ele><time>2023-11-01T10:55:51Z</time></trkpt><trkpt lat="52.0014560223" lon="-2.0207629446"><ele>176.66</ele><time>2023-11-01T10:56:04Z</time></trkpt><trkpt lat="52.0015495643" lon="-2.0207968075"><ele>176.31</ele><time>2023-11-01T10:56:16Z</time></trkpt><trkpt lat="52.0016838424" lon="-2.0208988991"><ele>176.12</ele><time>2023-11-01T10:56:33Z</time></trkpt><trkpt lat="52.0017766301" lon="-2.0209682174"><ele>176.09</ele><time>2023-11-01T10:56:45Z</time></trkpt><trkpt lat="52.0018636342" lon="-2.0210570656"><ele>175.31</ele><time>2023-11-01T10:57:01Z</time></trkpt><trkpt lat="52.0019598585" lon="-2.0211107098"><ele>174.95</ele><time>2023-11-01T10:57:17Z</time></trkpt><trkpt lat="52.0020269137" lon="-2.0212131366"><ele>175.57</ele><time>2023-11-01T10:57:31Z</time></trkpt><trkpt lat="52.0020934660" lon="-2.0212641824"><ele>175.81</ele><time>2023-11-01T10:57:42Z</time></trkpt><trkpt lat="52.0021793805" lon="-2.0213279687"><ele>176.07</ele><time>2023-11-01T10:58:00Z</time></trkpt><trkpt lat="52.0022520516" lon="-2.0213378593"><ele>175.98</ele><time>2023-11-01T10:58:19Z</time></trkpt><trkpt lat="52.0023371279" lon="-2.0213968679"><ele>175.52</ele><time>2023-11-01T10:58:30Z</time></trkpt><trkpt lat="52.0023875032" lon="-2.0214232709"><ele>175.49</ele><time>2023-11-01T10:58:42Z</time></trkpt><trkpt lat="52.0024755131" lon="-2.0214677788"><ele>175.56</ele><time>2023-11-01T10:58:56Z</time></trkpt><trkpt lat="52.0025726594" lon="-2.0214878954"><ele>175.48</ele><time>2023-11-01T10:59:10Z</time></trkpt><trkpt lat="52.0026593283" lon="-2.0215365943"><ele>175.24</ele><time>2023-11-01T10:59:23Z</time></trkpt><trkpt lat="52.0027742442" lon="-2.0216149651"><ele>174.81</ele><time>2023-11-01T10:59:40Z</time></trkpt><trkpt lat="52.0028646011" lon="-2.0216727164"><ele>175.00</ele><time>2023-11-01T10:59:55Z</time></trkpt><trkpt lat="52.0029610768" lon="-2.0216929168"><ele>175.15</ele><time>2023-11-01T11:00:14Z</time></trkpt><trkpt lat="52.0030628331" lon="-2.0217422023"><ele>175.15</ele><time>2023-11-01T11:00:30Z</time></trkpt><trkpt lat="52.0031432156" lon="-2.0218028873"><ele>175.15</ele><time>2023-11-01T11:00:47Z</time></trkpt><trkpt lat="52.0032489952" lon="-2.0218274463"><ele>175.15</ele><time>2023-11-01T11:01:01Z</time></trkpt><trkpt lat="52.0033147931" lon="-2.0218763128"><ele>175.15</ele><time>2023-11-01T11:01:14Z</time></trkpt><trkpt lat="52.0033735503" lon="-2.0220267680"><ele>174.81</ele><time>2023-11-01T11:01:25Z</time></trkpt><trkpt lat="52.0033983607" lon="-2.0220766403"><ele>174.65</ele><time>2023-11-01T11:01:29Z</time></trkpt><trkpt lat="52.0034368336" lon="-2.0221614651"><ele>174.99</ele><time>2023-11-01T11:01:35Z</time></trkpt><trkpt lat="52.0034892205" lon="-2.0222692564"><ele>175.50</ele><time>2023-11-01T11:01:48Z</time></trkpt><trkpt lat="52.0034782402" lon="-2.0222687535"><ele>171.32</ele><time>2023-11-01T11:01:58Z</time></trkpt><trkpt lat="52.0034787431" lon="-2.0222734474"><ele>168.04</ele><time>2023-11-01T11:02:01Z</time></trkpt><trkpt lat="52.0034915674" lon="-2.0222985093"><ele>171.70</ele><time>2023-11-01T11:02:03Z</time></trkpt><trkpt lat="52.0034949202" lon="-2.0223124232"><ele>175.30</ele><time>2023-11-01T11:02:04Z</time></trkpt><trkpt lat="52.0034973510" lon="-2.0223431848"><ele>178.77</ele><time>2023-11-01T11:02:06Z</time></trkpt><trkpt lat="52.0035171323" lon="-2.0224677399"><ele>176.29</ele><time>2023-11-01T11:02:18Z</time></trkpt><trkpt lat="52.0035272744" lon="-2.0224834979"><ele>175.34</ele><time>2023-11-01T11:02:40Z</time></trkpt><trkpt lat="52.0035428647" lon="-2.0224391576"><ele>174.97</ele><time>2023-11-01T11:02:58Z</time></trkpt><trkpt lat="52.0035447925" lon="-2.0224748645"><ele>171.76</ele><time>2023-11-01T11:03:13Z</time></trkpt><trkpt lat="52.0035447925" lon="-2.0224731043"><ele>168.21</ele><time>2023-11-01T11:03:15Z</time></trkpt><trkpt lat="52.0035543479" lon="-2.0224717632"><ele>173.78</ele><time>2023-11-01T11:03:19Z</time></trkpt><trkpt lat="52.0035578683" lon="-2.0224850066"><ele>177.65</ele><time>2023-11-01T11:03:21Z</time></trkpt><trkpt lat="52.0035587903" lon="-2.0224874374"><ele>178.58</ele><time>2023-11-01T11:03:23Z</time></trkpt><trkpt lat="52.0035645738" lon="-2.0224967413"><ele>175.39</ele><time>2023-11-01T11:03:31Z</time></trkpt><trkpt lat="52.0035833493" lon="-2.0225158520"><ele>175.21</ele><time>2023-11-01T11:03:52Z</time></trkpt><trkpt lat="52.0036146138" lon="-2.0225393213"><ele>175.21</ele><time>2023-11-01T11:04:11Z</time></trkpt><trkpt lat="52.0036073215" lon="-2.0225320291"><ele>175.21</ele><time>2023-11-01T11:04:37Z</time></trkpt><trkpt lat="52.0036938228" lon="-2.0224876050"><ele>175.21</ele><time>2023-11-01T11:05:18Z</time></trkpt><trkpt lat="52.0037446171" lon="-2.0224807318"><ele>175.21</ele><time>2023-11-01T11:05:25Z</time></trkpt><trkpt lat="52.0038138516" lon="-2.0224746130"><ele>175.18</ele><time>2023-11-01T11:05:32Z</time></trkpt><trkpt lat="52.0038745366" lon="-2.0224514790"><ele>175.11</ele><time>2023-11-01T11:05:38Z</time></trkpt><trkpt lat="52.0039882790" lon="-2.0224680752"><ele>174.71</ele><time>2023-11-01T11:05:49Z</time></trkpt><trkpt lat="52.0041097328" lon="-2.0224757865"><ele>174.72</ele><time>2023-11-01T11:06:03Z</time></trkpt><trkpt lat="52.0041625388" lon="-2.0224063005"><ele>174.40</ele><time>2023-11-01T11:06:18Z</time></trkpt><trkpt lat="52.0041679870" lon="-2.0223643910"><ele>173.89</ele><time>2023-11-01T11:06:23Z</time></trkpt><trkpt lat="52.0041867625" lon="-2.0223037899"><ele>173.28</ele><time>2023-11-01T11:06:40Z</time></trkpt><trkpt lat="52.0042145904" lon="-2.0222715195"><ele>174.62</ele><time>2023-11-01T11:06:55Z</time></trkpt><trkpt lat="52.0042031910" lon="-2.0221694279"><ele>173.92</ele><time>2023-11-01T11:07:16Z</time></trkpt><trkpt lat="52.0041898638" lon="-2.0221232437"><ele>174.41</ele><time>2023-11-01T11:07:38Z</time></trkpt><trkpt lat="52.0041855890" lon="-2.0221519936"><ele>174.36</ele><time>2023-11-01T11:08:03Z</time></trkpt><trkpt lat="52.0041598566" lon="-2.0219863672"><ele>174.36</ele><time>2023-11-01T11:08:23Z</time></trkpt><trkpt lat="52.0041008480" lon="-2.0218670089"><ele>174.36</ele><time>2023-11-01T11:08:49Z</time></trkpt><trkpt lat="52.0040485449" lon="-2.0216649212"><ele>174.36</ele><time>2023-11-01T11:09:14Z</time></trkpt><trkpt lat="52.0039782207" lon="-2.0214661025"><ele>174.36</ele><time>2023-11-01T11:09:34Z</time></trkpt><trkpt lat="52.0039786398" lon="-2.0214218460"><ele>174.36</ele><time>2023-11-01T11:09:54Z</time></trkpt><trkpt lat="52.0039855130" lon="-2.0214203373"><ele>174.36</ele><time>2023-11-01T11:10:20Z</time></trkpt><trkpt lat="52.0040123351" lon="-2.0213839598"><ele>174.36</ele><time>2023-11-01T11:10:49Z</time></trkpt><trkpt lat="52.0040003490" lon="-2.0213863906"><ele>174.36</ele><time>2023-11-01T11:11:13Z</time></trkpt><trkpt lat="52.0039938111" lon="-2.0214089379"><ele>174.36</ele><time>2023-11-01T11:11:32Z</time></trkpt><trkpt lat="52.0040244889" lon="-2.0214467403"><ele>174.36</ele><time>2023-11-01T11:11:54Z</time></trkpt><trkpt lat="52.0040114969" lon="-2.0214082673"><ele>174.36</ele><time>2023-11-01T11:12:19Z</time></trkpt><trkpt lat="52.0039988402" lon="-2.0214306470"><ele>174.36</ele><time>2023-11-01T11:12:43Z</time></trkpt><trkpt lat="52.0040099882" lon="-2.0214701258"><ele>177.37</ele><time>2023-11-01T11:13:02Z</time></trkpt><trkpt lat="52.0040100720" lon="-2.0214728918"><ele>177.37</ele><time>2023-11-01T11:13:03Z</time></trkpt><trkpt lat="52.0040223096" lon="-2.0214456506"><ele>177.97</ele><time>2023-11-01T11:13:33Z</time></trkpt><trkpt lat="52.0040130895" lon="-2.0214157272"><ele>177.66</ele><time>2023-11-01T11:14:00Z</time></trkpt><trkpt lat="52.0040055458" lon="-2.0214281324"><ele>177.49</ele><time>2023-11-01T11:14:26Z</time></trkpt><trkpt lat="52.0040008519" lon="-2.0213697944"><ele>177.49</ele><time>2023-11-01T11:14:58Z</time></trkpt><trkpt lat="52.0040001813" lon="-2.0213634241"><ele>177.49</ele><time>2023-11-01T11:15:28Z</time></trkpt><trkpt lat="52.0040006842" lon="-2.0213805232"><ele>177.49</ele><time>2023-11-01T11:15:49Z</time></trkpt><trkpt lat="52.0040021092" lon="-2.0213703811"><ele>177.49</ele><time>2023-11-01T11:16:23Z</time></trkpt><trkpt lat="52.0039911289" lon="-2.0213869773"><ele>177.49</ele><time>2023-11-01T11:16:46Z</time></trkpt><trkpt lat="52.0040099043" lon="-2.0213850494"><ele>177.49</ele><time>2023-11-01T11:17:27Z</time></trkpt><trkpt lat="52.0040228125" lon="-2.0213877317"><ele>177.49</ele><time>2023-11-01T11:18:01Z</time></trkpt><trkpt lat="52.0040213875" lon="-2.0213816129"><ele>177.49</ele><time>2023-11-01T11:18:36Z</time></trkpt><trkpt lat="52.0040126704" lon="-2.0213758294"><ele>177.49</ele><time>2023-11-01T11:19:05Z</time></trkpt><trkpt lat="52.0040128380" lon="-2.0213104505"><ele>177.49</ele><time>2023-11-01T11:19:22Z</time></trkpt><trkpt lat="52.0040002652" lon="-2.0213152282"><ele>177.49</ele><time>2023-11-01T11:20:00Z</time></trkpt><trkpt lat="52.0040105749" lon="-2.0213153120"><ele>177.49</ele><time>2023-11-01T11:20:26Z</time></trkpt><trkpt lat="52.0040161069" lon="-2.0213197544"><ele>177.49</ele><time>2023-11-01T11:20:57Z</time></trkpt><trkpt lat="52.0040225610" lon="-2.0213298127"><ele>177.49</ele><time>2023-11-01T11:21:22Z</time></trkpt><trkpt lat="52.0040152688" lon="-2.0213271305"><ele>177.49</ele><time>2023-11-01T11:21:53Z</time></trkpt><trkpt lat="52.0040031150" lon="-2.0213330816"><ele>177.49</ele><time>2023-11-01T11:22:32Z</time></trkpt><trkpt lat="52.0040041208" lon="-2.0213720575"><ele>177.49</ele><time>2023-11-01T11:22:53Z</time></trkpt><trkpt lat="52.0040119998" lon="-2.0213619992"><ele>177.49</ele><time>2023-11-01T11:23:18Z</time></trkpt><trkpt lat="52.0040027797" lon="-2.0213693753"><ele>177.49</ele><time>2023-11-01T11:23:40Z</time></trkpt><trkpt lat="52.0039966609" lon="-2.0213847980"><ele>177.49</ele><time>2023-11-01T11:24:04Z</time></trkpt><trkpt lat="52.0039903745" lon="-2.0213949401"><ele>177.49</ele><time>2023-11-01T11:24:29Z</time></trkpt><trkpt lat="52.0040031988" lon="-2.0213810261"><ele>177.49</ele><time>2023-11-01T11:24:57Z</time></trkpt><trkpt lat="52.0040027797" lon="-2.0213934314"><ele>177.49</ele><time>2023-11-01T11:25:22Z</time></trkpt><trkpt lat="52.0040013548" lon="-2.0214055851"><ele>177.49</ele><time>2023-11-01T11:25:46Z</time></trkpt><trkpt lat="52.0040106587" lon="-2.0213596523"><ele>177.49</ele><time>2023-11-01T11:26:11Z</time></trkpt><trkpt lat="52.0040008519" lon="-2.0213546231"><ele>177.49</ele><time>2023-11-01T11:26:56Z</time></trkpt><trkpt lat="52.0040069707" lon="-2.0213494264"><ele>177.49</ele><time>2023-11-01T11:27:51Z</time></trkpt><trkpt lat="52.0039908774" lon="-2.0213644300"><ele>177.49</ele><time>2023-11-01T11:28:38Z</time></trkpt><trkpt lat="52.0040018577" lon="-2.0213631727"><ele>177.49</ele><time>2023-11-01T11:29:00Z</time></trkpt><trkpt lat="52.0039974153" lon="-2.0213977899"><ele>177.49</ele><time>2023-11-01T11:29:24Z</time></trkpt><trkpt lat="52.0039969124" lon="-2.0213868096"><ele>177.49</ele><time>2023-11-01T11:29:50Z</time></trkpt><trkpt lat="52.0039901230" lon="-2.0213621669"><ele>177.49</ele><time>2023-11-01T11:30:19Z</time></trkpt><trkpt lat="52.0039954036" lon="-2.0212565549"><ele>177.49</ele><time>2023-11-01T11:30:40Z</time></trkpt><trkpt lat="52.0039980020" lon="-2.0211838838"><ele>177.36</ele><time>2023-11-01T11:30:45Z</time></trkpt><trkpt lat="52.0040063001" lon="-2.0210402180"><ele>176.47</ele><time>2023-11-01T11:30:56Z</time></trkpt><trkpt lat="52.0040128380" lon="-2.0209847298"><ele>176.37</ele><time>2023-11-01T11:31:00Z</time></trkpt><trkpt lat="52.0040234830" lon="-2.0208760165"><ele>176.30</ele><time>2023-11-01T11:31:07Z</time></trkpt><trkpt lat="52.0040384028" lon="-2.0207595080"><ele>176.52</ele><time>2023-11-01T11:31:15Z</time></trkpt><trkpt lat="52.0040579326" lon="-2.0205450989"><ele>176.77</ele><time>2023-11-01T11:31:30Z</time></trkpt><trkpt lat="52.0040573459" lon="-2.0203933027"><ele>177.70</ele><time>2023-11-01T11:31:41Z</time></trkpt><trkpt lat="52.0040792227" lon="-2.0201985911"><ele>177.85</ele><time>2023-11-01T11:31:56Z</time></trkpt><trkpt lat="52.0040751994" lon="-2.0200834237"><ele>177.77</ele><time>2023-11-01T11:32:08Z</time></trkpt><trkpt lat="52.0040789712" lon="-2.0199289452"><ele>178.59</ele><time>2023-11-01T11:32:23Z</time></trkpt><trkpt lat="52.0040802285" lon="-2.0197897218"><ele>178.44</ele><time>2023-11-01T11:32:36Z</time></trkpt><trkpt lat="52.0040921308" lon="-2.0196290407"><ele>178.79</ele><time>2023-11-01T11:32:52Z</time></trkpt><trkpt lat="52.0040577650" lon="-2.0195209142"><ele>179.28</ele><time>2023-11-01T11:33:06Z</time></trkpt><trkpt lat="52.0039806515" lon="-2.0194285456"><ele>179.81</ele><time>2023-11-01T11:33:19Z</time></trkpt><trkpt lat="52.0038978383" lon="-2.0193293877"><ele>180.19</ele><time>2023-11-01T11:33:35Z</time></trkpt><trkpt lat="52.0038360637" lon="-2.0192513522"><ele>180.52</ele><time>2023-11-01T11:33:52Z</time></trkpt><trkpt lat="52.0037831739" lon="-2.0192091912"><ele>180.33</ele><time>2023-11-01T11:34:04Z</time></trkpt><trkpt lat="52.0037156157" lon="-2.0191408787"><ele>180.59</ele><time>2023-11-01T11:34:17Z</time></trkpt><trkpt lat="52.0036058966" lon="-2.0190186705"><ele>180.55</ele><time>2023-11-01T11:34:33Z</time></trkpt><trkpt lat="52.0035253465" lon="-2.0189301576"><ele>180.69</ele><time>2023-11-01T11:34:46Z</time></trkpt><trkpt lat="52.0034671761" lon="-2.0188741665"><ele>180.59</ele><time>2023-11-01T11:35:02Z</time></trkpt><trkpt lat="52.0033642463" lon="-2.0188024174"><ele>180.22</ele><time>2023-11-01T11:35:15Z</time></trkpt><trkpt lat="52.0032769907" lon="-2.0187201910"><ele>181.14</ele><time>2023-11-01T11:35:27Z</time></trkpt><trkpt lat="52.0031707082" lon="-2.0186258107"><ele>181.18</ele><time>2023-11-01T11:35:41Z</time></trkpt><trkpt lat="52.0031483285" lon="-2.0186020061"><ele>181.17</ele><time>2023-11-01T11:35:44Z</time></trkpt><trkpt lat="52.0031026471" lon="-2.0185540617"><ele>181.15</ele><time>2023-11-01T11:35:51Z</time></trkpt><trkpt lat="52.0030091051" lon="-2.0184585918"><ele>181.50</ele><time>2023-11-01T11:36:05Z</time></trkpt><trkpt lat="52.0029244479" lon="-2.0183767844"><ele>181.25</ele><time>2023-11-01T11:36:18Z</time></trkpt><trkpt lat="52.0028412994" lon="-2.0183170214"><ele>181.15</ele><time>2023-11-01T11:36:31Z</time></trkpt><trkpt lat="52.0028226078" lon="-2.0182962343"><ele>181.09</ele><time>2023-11-01T11:36:34Z</time></trkpt><trkpt lat="52.0027433150" lon="-2.0182123315"><ele>181.03</ele><time>2023-11-01T11:36:47Z</time></trkpt><trkpt lat="52.0026729908" lon="-2.0181641355"><ele>181.46</ele><time>2023-11-01T11:37:01Z</time></trkpt><trkpt lat="52.0026112162" lon="-2.0181261655"><ele>181.50</ele><time>2023-11-01T11:37:16Z</time></trkpt><trkpt lat="52.0025776885" lon="-2.0181259140"><ele>181.11</ele><time>2023-11-01T11:37:30Z</time></trkpt><trkpt lat="52.0025264751" lon="-2.0181611180"><ele>180.94</ele><time>2023-11-01T11:37:44Z</time></trkpt><trkpt lat="52.0024950430" lon="-2.0179815777"><ele>180.61</ele><time>2023-11-01T11:37:58Z</time></trkpt><trkpt lat="52.0024445839" lon="-2.0179232396"><ele>180.49</ele><time>2023-11-01T11:38:13Z</time></trkpt><trkpt lat="52.0023952983" lon="-2.0178855211"><ele>180.84</ele><time>2023-11-01T11:38:20Z</time></trkpt><trkpt lat="52.0023050252" lon="-2.0178407617"><ele>180.91</ele><time>2023-11-01T11:38:33Z</time></trkpt><trkpt lat="52.0022976492" lon="-2.0178395882"><ele>180.93</ele><time>2023-11-01T11:38:34Z</time></trkpt><trkpt lat="52.0022187755" lon="-2.0177683420"><ele>181.40</ele><time>2023-11-01T11:38:47Z</time></trkpt><trkpt lat="52.0021492057" lon="-2.0177020412"><ele>181.65</ele><time>2023-11-01T11:38:59Z</time></trkpt><trkpt lat="52.0020520594" lon="-2.0176157914"><ele>181.63</ele><time>2023-11-01T11:39:13Z</time></trkpt><trkpt lat="52.0019876864" lon="-2.0175519213"><ele>181.53</ele><time>2023-11-01T11:39:26Z</time></trkpt><trkpt lat="52.0019167755" lon="-2.0174477343"><ele>181.69</ele><time>2023-11-01T11:39:39Z</time></trkpt><trkpt lat="52.0018524025" lon="-2.0173913240"><ele>181.79</ele><time>2023-11-01T11:39:52Z</time></trkpt><trkpt lat="52.0018386561" lon="-2.0173678547"><ele>181.36</ele><time>2023-11-01T11:40:19Z</time></trkpt><trkpt lat="52.0017667394" lon="-2.0173107740"><ele>181.36</ele><time>2023-11-01T11:40:32Z</time></trkpt><trkpt lat="52.0017018635" lon="-2.0172705408"><ele>181.99</ele><time>2023-11-01T11:40:44Z</time></trkpt><trkpt lat="52.0016377419" lon="-2.0172206685"><ele>182.00</ele><time>2023-11-01T11:40:57Z</time></trkpt><trkpt lat="52.0015831757" lon="-2.0172271226"><ele>182.49</ele><time>2023-11-01T11:41:12Z</time></trkpt><trkpt lat="52.0015169587" lon="-2.0171771664"><ele>182.10</ele><time>2023-11-01T11:41:25Z</time></trkpt><trkpt lat="52.0014278591" lon="-2.0171355922"><ele>182.01</ele><time>2023-11-01T11:41:37Z</time></trkpt><trkpt lat="52.0013585407" lon="-2.0170811098"><ele>181.85</ele><time>2023-11-01T11:41:50Z</time></trkpt><trkpt lat="52.0012751408" lon="-2.0170011465"><ele>182.18</ele><time>2023-11-01T11:42:03Z</time></trkpt><trkpt lat="52.0012005419" lon="-2.0169281401"><ele>182.18</ele><time>2023-11-01T11:42:17Z</time></trkpt><trkpt lat="52.0011616498" lon="-2.0168759208"><ele>182.18</ele><time>2023-11-01T11:42:24Z</time></trkpt><trkpt lat="52.0010945108" lon="-2.0167905092"><ele>182.18</ele><time>2023-11-01T11:42:36Z</time></trkpt><trkpt lat="52.0010078419" lon="-2.0167108811"><ele>182.18</ele><time>2023-11-01T11:42:50Z</time></trkpt><trkpt lat="52.0008976199" lon="-2.0166317560"><ele>181.83</ele><time>2023-11-01T11:43:04Z</time></trkpt><trkpt lat="52.0007967856" lon="-2.0165496133"><ele>182.12</ele><time>2023-11-01T11:43:18Z</time></trkpt><trkpt lat="52.0006954484" lon="-2.0164647046"><ele>181.98</ele><time>2023-11-01T11:43:32Z</time></trkpt><trkpt lat="52.0006158203" lon="-2.0163740963"><ele>182.17</ele><time>2023-11-01T11:43:46Z</time></trkpt><trkpt lat="52.0005862322" lon="-2.0163200330"><ele>182.42</ele><time>2023-11-01T11:44:03Z</time></trkpt><trkpt lat="52.0005265530" lon="-2.0162724238"><ele>182.59</ele><time>2023-11-01T11:44:17Z</time></trkpt><trkpt lat="52.0004811231" lon="-2.0161459409"><ele>182.80</ele><time>2023-11-01T11:44:30Z</time></trkpt><trkpt lat="52.0005367789" lon="-2.0159903727"><ele>183.27</ele><time>2023-11-01T11:44:42Z</time></trkpt><trkpt lat="52.0006063487" lon="-2.0158232376"><ele>182.75</ele><time>2023-11-01T11:44:57Z</time></trkpt><trkpt lat="52.0006266329" lon="-2.0157804061"><ele>182.70</ele><time>2023-11-01T11:45:01Z</time></trkpt><trkpt lat="52.0006997231" lon="-2.0155828446"><ele>182.47</ele><time>2023-11-01T11:45:17Z</time></trkpt><trkpt lat="52.0007658564" lon="-2.0153965149"><ele>182.88</ele><time>2023-11-01T11:45:33Z</time></trkpt><trkpt lat="52.0007676166" lon="-2.0152476523"><ele>182.73</ele><time>2023-11-01T11:45:47Z</time></trkpt><trkpt lat="52.0007034112" lon="-2.0150814392"><ele>182.87</ele><time>2023-11-01T11:46:02Z</time></trkpt><trkpt lat="52.0006893296" lon="-2.0149504300"><ele>183.12</ele><time>2023-11-01T11:46:18Z</time></trkpt><trkpt lat="52.0006868150" lon="-2.0149484184"><ele>182.59</ele><time>2023-11-01T11:46:51Z</time></trkpt><trkpt lat="52.0007119607" lon="-2.0149212610"><ele>183.04</ele><time>2023-11-01T11:47:16Z</time></trkpt><trkpt lat="52.0007236116" lon="-2.0149278827"><ele>183.04</ele><time>2023-11-01T11:47:54Z</time></trkpt><trkpt lat="52.0007386152" lon="-2.0149324089"><ele>183.04</ele><time>2023-11-01T11:48:27Z</time></trkpt><trkpt lat="52.0007272158" lon="-2.0149029884"><ele>183.04</ele><time>2023-11-01T11:48:57Z</time></trkpt><trkpt lat="52.0008056704" lon="-2.0148115419"><ele>183.04</ele><time>2023-11-01T11:49:11Z</time></trkpt><trkpt lat="52.0007850509" lon="-2.0148154814"><ele>183.04</ele><time>2023-11-01T11:49:35Z</time></trkpt><trkpt lat="52.0007854700" lon="-2.0147922635"><ele>183.04</ele><time>2023-11-01T11:50:01Z</time></trkpt><trkpt lat="52.0007749926" lon="-2.0147817861"><ele>183.04</ele><time>2023-11-01T11:50:29Z</time></trkpt><trkpt lat="52.0007776748" lon="-2.0147843845"><ele>183.04</ele><time>2023-11-01T11:50:58Z</time></trkpt><trkpt lat="52.0007447340" lon="-2.0148458239"><ele>183.04</ele><time>2023-11-01T11:51:25Z</time></trkpt><trkpt lat="52.0006381162" lon="-2.0148545410"><ele>182.61</ele><time>2023-11-01T11:51:38Z</time></trkpt><trkpt lat="52.0004565641" lon="-2.0148132183"><ele>182.19</ele><time>2023-11-01T11:51:52Z</time></trkpt><trkpt lat="52.0004140679" lon="-2.0148269646"><ele>182.01</ele><time>2023-11-01T11:51:57Z</time></trkpt><trkpt lat="52.0003566518" lon="-2.0148987975"><ele>181.60</ele><time>2023-11-01T11:52:04Z</time></trkpt><trkpt lat="52.0002098847" lon="-2.0150523540"><ele>181.15</ele><time>2023-11-01T11:52:21Z</time></trkpt><trkpt lat="52.0001229644" lon="-2.0150878932"><ele>181.20</ele><time>2023-11-01T11:52:38Z</time></trkpt><trkpt lat="52.0000276621" lon="-2.0151219238"><ele>180.73</ele><time>2023-11-01T11:52:52Z</time></trkpt><trkpt lat="52.0000031032" lon="-2.0151544455"><ele>180.72</ele><time>2023-11-01T11:52:55Z</time></trkpt><trkpt lat="51.9999197870" lon="-2.0152824372"><ele>180.78</ele><time>2023-11-01T11:53:05Z</time></trkpt><trkpt lat="51.9998778775" lon="-2.0153637417"><ele>180.67</ele><time>2023-11-01T11:53:25Z</time></trkpt><trkpt lat="51.9998452719" lon="-2.0153681003"><ele>180.53</ele><time>2023-11-01T11:53:45Z</time></trkpt><trkpt lat="51.9997654762" lon="-2.0154086687"><ele>181.52</ele><time>2023-11-01T11:53:57Z</time></trkpt><trkpt lat="51.9997466169" lon="-2.0154490694"><ele>181.49</ele><time>2023-11-01T11:54:00Z</time></trkpt><trkpt lat="51.9996294379" lon="-2.0155854430"><ele>180.13</ele><time>2023-11-01T11:54:16Z</time></trkpt><trkpt lat="51.9995538332" lon="-2.0156754646"><ele>179.43</ele><time>2023-11-01T11:54:34Z</time></trkpt><trkpt lat="51.9994858559" lon="-2.0156819187"><ele>179.63</ele><time>2023-11-01T11:54:48Z</time></trkpt><trkpt lat="51.9994379114" lon="-2.0155611355"><ele>179.26</ele><time>2023-11-01T11:55:12Z</time></trkpt><trkpt lat="51.9993794058" lon="-2.0153882168"><ele>179.46</ele><time>2023-11-01T11:55:31Z</time></trkpt><trkpt lat="51.9993080758" lon="-2.0152521785"><ele>179.37</ele><time>2023-11-01T11:55:48Z</time></trkpt><trkpt lat="51.9992845226" lon="-2.0151810162"><ele>179.37</ele><time>2023-11-01T11:56:05Z</time></trkpt><trkpt lat="51.9991857000" lon="-2.0152556151"><ele>179.37</ele><time>2023-11-01T11:56:22Z</time></trkpt><trkpt lat="51.9992097560" lon="-2.0152002946"><ele>179.37</ele><time>2023-11-01T11:56:28Z</time></trkpt><trkpt lat="51.9992442057" lon="-2.0150498394"><ele>179.57</ele><time>2023-11-01T11:56:46Z</time></trkpt><trkpt lat="51.9992517494" lon="-2.0150660165"><ele>179.51</ele><time>2023-11-01T11:57:11Z</time></trkpt><trkpt lat="51.9991928246" lon="-2.0150485821"><ele>179.59</ele><time>2023-11-01T11:57:27Z</time></trkpt><trkpt lat="51.9991341513" lon="-2.0149870589"><ele>180.34</ele><time>2023-11-01T11:57:45Z</time></trkpt><trkpt lat="51.9990599714" lon="-2.0149648469"><ele>180.81</ele><time>2023-11-01T11:57:59Z</time></trkpt><trkpt lat="51.9989701174" lon="-2.0149049163"><ele>180.12</ele><time>2023-11-01T11:58:24Z</time></trkpt><trkpt lat="51.9988550339" lon="-2.0149023179"><ele>179.92</ele><time>2023-11-01T11:58:34Z</time></trkpt><trkpt lat="51.9986795168" lon="-2.0148766693"><ele>179.97</ele><time>2023-11-01T11:58:51Z</time></trkpt><trkpt lat="51.9985406287" lon="-2.0148817822"><ele>179.70</ele><time>2023-11-01T11:59:06Z</time></trkpt><trkpt lat="51.9984646048" lon="-2.0148739032"><ele>179.27</ele><time>2023-11-01T11:59:15Z</time></trkpt><trkpt lat="51.9983570650" lon="-2.0148656052"><ele>179.14</ele><time>2023-11-01T11:59:31Z</time></trkpt><trkpt lat="51.9982551411" lon="-2.0148847997"><ele>179.03</ele><time>2023-11-01T11:59:48Z</time></trkpt><trkpt lat="51.9982194342" lon="-2.0148996357"><ele>178.40</ele><time>2023-11-01T12:00:07Z</time></trkpt><trkpt lat="51.9982019998" lon="-2.0149024855"><ele>178.99</ele><time>2023-11-01T12:00:34Z</time></trkpt><trkpt lat="51.9981755130" lon="-2.0149209257"><ele>180.04</ele><time>2023-11-01T12:00:50Z</time></trkpt><trkpt lat="51.9980370440" lon="-2.0149551239"><ele>178.86</ele><time>2023-11-01T12:01:13Z</time></trkpt><trkpt lat="51.9979840703" lon="-2.0149773359"><ele>178.99</ele><time>2023-11-01T12:01:25Z</time></trkpt><trkpt lat="51.9977996685" lon="-2.0149477478"><ele>178.78</ele><time>2023-11-01T12:01:50Z</time></trkpt><trkpt lat="51.9977394864" lon="-2.0148179960"><ele>178.90</ele><time>2023-11-01T12:02:10Z</time></trkpt><trkpt lat="51.9976814836" lon="-2.0147526171"><ele>178.35</ele><time>2023-11-01T12:02:28Z</time></trkpt><trkpt lat="51.9975628797" lon="-2.0146153215"><ele>178.60</ele><time>2023-11-01T12:02:45Z</time></trkpt><trkpt lat="51.9975404162" lon="-2.0145874098"><ele>178.74</ele><time>2023-11-01T12:02:48Z</time></trkpt><trkpt lat="51.9974378217" lon="-2.0143910218"><ele>179.40</ele><time>2023-11-01T12:03:05Z</time></trkpt><trkpt lat="51.9973939843" lon="-2.0143053588"><ele>179.58</ele><time>2023-11-01T12:03:20Z</time></trkpt><trkpt lat="51.9973453693" lon="-2.0143407304"><ele>179.39</ele><time>2023-11-01T12:03:36Z</time></trkpt><trkpt lat="51.9972893782" lon="-2.0143955480"><ele>179.59</ele><time>2023-11-01T12:03:44Z</time></trkpt><trkpt lat="51.9972420204" lon="-2.0144250523"><ele>179.84</ele><time>2023-11-01T12:03:49Z</time></trkpt><trkpt lat="51.9971943274" lon="-2.0144946221"><ele>180.44</ele><time>2023-11-01T12:03:55Z</time></trkpt><trkpt lat="51.9971219078" lon="-2.0145596657"><ele>180.51</ele><time>2023-11-01T12:04:03Z</time></trkpt><trkpt lat="51.9970768131" lon="-2.0145682991"><ele>181.01</ele><time>2023-11-01T12:04:18Z</time></trkpt><trkpt lat="51.9970610552" lon="-2.0145855658"><ele>180.97</ele><time>2023-11-01T12:04:32Z</time></trkpt><trkpt lat="51.9970537629" lon="-2.0145789441"><ele>180.85</ele><time>2023-11-01T12:04:53Z</time></trkpt><trkpt lat="51.9970399328" lon="-2.0145691372"><ele>179.97</ele><time>2023-11-01T12:05:23Z</time></trkpt><trkpt lat="51.9970383402" lon="-2.0145684667"><ele>182.41</ele><time>2023-11-01T12:05:29Z</time></trkpt><trkpt lat="51.9970405195" lon="-2.0145704783"><ele>182.52</ele><time>2023-11-01T12:05:30Z</time></trkpt></trkseg></trk></gpx>